Time;durP1;ratioP1;P1;durP2;ratioP2;P2;SDS_P1;SDS_P2;PMS_P1;PMS_P2;Temp;Humidity;BMP_temperature;BMP_pressure;BME280_temperature;BME280_humidity;BME280_pressure;Samples;Min_cycle;Max_cycle;Signal;HPM_P1;HPM_P2
2024/03/10 00:00:16;;;;;;;26.70;14.20;;;;;;;-6.89;79.27;140607.59;106947;1265;25842;-64
2024/03/10 00:03:05;;;;;;;27.30;15.50;;;;;;;-6.89;79.83;140605.88;106609;1268;25348;-63
2024/03/10 00:05:51;;;;;;;29.10;14.10;;;;;;;-6.88;80.41;140609.33;106666;1263;24206;-63
2024/03/10 00:08:37;;;;;;;30.00;13.70;;;;;;;-6.87;80.54;140612.78;106612;1277;25497;-61
2024/03/10 00:11:22;;;;;;;26.50;14.20;;;;;;;-6.86;80.54;140615.00;106721;1265;25457;-63
2024/03/10 00:14:08;;;;;;;26.00;13.10;;;;;;;-6.86;80.85;140615.73;106738;1271;25373;-64
2024/03/10 00:16:55;;;;;;;35.40;16.70;;;;;;;-6.88;81.39;140608.59;106696;1272;25412;-62
2024/03/10 00:19:41;;;;;;;29.80;15.60;;;;;;;-6.91;81.62;140603.39;106675;1271;22647;-62
2024/03/10 00:22:27;;;;;;;31.80;15.50;;;;;;;-6.94;82.36;140595.50;106721;1271;25495;-64
2024/03/10 00:25:13;;;;;;;33.80;16.60;;;;;;;-6.96;82.68;140589.83;106803;1271;25430;-63
2024/03/10 00:27:59;;;;;;;33.80;16.70;;;;;;;-6.99;83.09;140583.63;106727;1273;25364;-63
2024/03/10 00:30:47;;;;;;;34.60;16.50;;;;;;;-7.01;83.32;140578.95;106818;1272;25466;-61
2024/03/10 00:33:33;;;;;;;38.00;18.90;;;;;;;-7.02;83.41;140575.47;106890;1271;25897;-61
2024/03/10 00:36:20;;;;;;;39.20;16.60;;;;;;;-7.02;83.71;140576.73;106779;1270;25373;-62
2024/03/10 00:39:06;;;;;;;34.90;16.60;;;;;;;-6.98;83.79;140584.38;107019;1256;25361;-64
2024/03/10 00:41:52;;;;;;;32.40;17.10;;;;;;;-6.97;83.92;140588.09;107016;1262;25412;-65
2024/03/10 00:44:38;;;;;;;44.20;19.50;;;;;;;-6.98;83.83;140584.36;106715;1271;25495;-64
2024/03/10 00:47:24;;;;;;;38.20;20.60;;;;;;;-7.00;84.06;140579.67;106703;1268;25576;-62
2024/03/10 00:50:10;;;;;;;51.90;26.20;;;;;;;-7.02;84.29;140574.47;106726;1271;25555;-63
2024/03/10 00:52:56;;;;;;;47.00;25.30;;;;;;;-7.05;84.15;140567.33;106737;1268;25394;-63
2024/03/10 00:55:44;;;;;;;35.30;19.20;;;;;;;-7.07;84.71;140562.88;106516;1270;25287;-62
2024/03/10 00:58:32;;;;;;;38.90;18.70;;;;;;;-7.09;85.05;140557.47;106561;1271;25498;-62
2024/03/10 01:01:19;;;;;;;38.00;19.50;;;;;;;-7.13;85.43;140548.33;106745;1269;25345;-64
2024/03/10 01:04:05;;;;;;;36.00;18.90;;;;;;;-7.18;85.78;140537.20;106524;1270;26664;-64
2024/03/10 01:06:51;;;;;;;39.90;20.00;;;;;;;-7.19;86.19;140533.28;106813;1271;25407;-65
2024/03/10 01:09:37;;;;;;;35.50;17.90;;;;;;;-7.21;86.32;140529.80;106715;1271;25504;-63
2024/03/10 01:12:22;;;;;;;35.20;18.90;;;;;;;-7.22;86.80;140528.56;106665;1272;25367;-64
2024/03/10 01:15:08;;;;;;;37.40;18.70;;;;;;;-7.22;86.80;140527.81;106731;1279;25531;-64
2024/03/10 01:17:54;;;;;;;35.90;16.80;;;;;;;-7.21;86.77;140530.53;106889;1271;26358;-64
2024/03/10 01:20:39;;;;;;;38.70;19.40;;;;;;;-7.19;86.98;140534.00;106764;1271;25348;-66
2024/03/10 01:23:25;;;;;;;35.80;19.60;;;;;;;-7.18;87.22;140534.97;106889;1271;25410;-66
2024/03/10 01:26:11;;;;;;;41.10;20.10;;;;;;;-7.20;87.30;140531.28;106715;1273;25345;-62
2024/03/10 01:28:57;;;;;;;38.50;19.90;;;;;;;-7.23;87.37;140525.59;106790;1271;25345;-64
2024/03/10 01:31:44;;;;;;;39.30;19.60;;;;;;;-7.26;87.76;140517.70;106628;1271;25367;-64
2024/03/10 01:34:30;;;;;;;41.40;21.30;;;;;;;-7.31;87.88;140506.84;106713;1271;25364;-63
2024/03/10 01:37:16;;;;;;;34.00;20.10;;;;;;;-7.34;88.24;140498.70;106783;1271;25374;-64
2024/03/10 01:40:04;;;;;;;38.40;19.90;;;;;;;-7.34;88.32;140497.45;106631;1271;25348;-64
2024/03/10 01:42:56;;;;;;;37.60;20.90;;;;;;;-7.35;88.17;140495.25;106588;1278;24241;-65
2024/03/10 01:45:42;;;;;;;39.10;20.70;;;;;;;-7.36;88.61;140493.52;106623;1265;25348;-63
2024/03/10 01:48:27;;;;;;;37.30;21.00;;;;;;;-7.38;88.76;140489.08;106757;1272;25407;-62
2024/03/10 01:51:14;;;;;;;36.30;20.20;;;;;;;-7.37;88.90;140491.06;106628;1271;25348;-63
2024/03/10 01:54:01;;;;;;;34.90;19.70;;;;;;;-7.33;88.79;140499.92;106623;1271;25429;-64
2024/03/10 01:56:50;;;;;;;40.80;20.00;;;;;;;-7.31;88.61;140504.61;106688;1280;25429;-64
2024/03/10 01:59:38;;;;;;;41.10;21.60;;;;;;;-7.30;88.58;140507.59;106623;1266;25398;-64
2024/03/10 02:02:23;;;;;;;46.40;22.00;;;;;;;-7.30;88.47;140509.08;106504;1271;25349;-64
2024/03/10 02:05:09;;;;;;;38.90;20.60;;;;;;;-7.31;88.58;140505.34;106709;1268;25440;-64
2024/03/10 02:07:56;;;;;;;39.70;20.70;;;;;;;-7.32;88.53;140502.88;106694;1277;25376;-65
2024/03/10 02:10:48;;;;;;;37.20;22.00;;;;;;;-7.34;88.56;140498.70;106757;1268;25446;-62
2024/03/10 02:13:33;;;;;;;37.20;20.80;;;;;;;-7.36;88.47;140494.50;106658;1272;25498;-62
2024/03/10 02:16:19;;;;;;;38.00;20.20;;;;;;;-7.37;88.71;140490.30;106669;1265;22532;-64
2024/03/10 02:19:06;;;;;;;41.70;20.60;;;;;;;-7.39;88.53;140484.86;106549;1271;25367;-63
2024/03/10 02:21:52;;;;;;;41.50;22.40;;;;;;;-7.41;88.58;140480.42;106618;1271;25338;-64
2024/03/10 02:24:43;;;;;;;50.20;22.50;;;;;;;-7.44;88.74;140474.00;106645;1270;24210;-62
2024/03/10 02:27:30;;;;;;;45.40;24.10;;;;;;;-7.46;88.93;140469.06;106623;1272;25431;-63
2024/03/10 02:30:19;;;;;;;44.60;23.50;;;;;;;-7.46;89.21;140469.81;106651;1268;25348;-64
2024/03/10 02:49:01;;;;;;;42.70;23.30;;;;;;;-7.53;89.98;140453.52;106629;1272;25441;-62
2024/03/10 02:51:48;;;;;;;38.90;22.60;;;;;;;-7.57;89.89;140443.16;106583;1271;25333;-61
2024/03/10 02:54:35;;;;;;;40.40;23.60;;;;;;;-7.60;90.03;140435.50;106623;1271;25366;-63
2024/03/10 02:57:20;;;;;;;49.50;22.60;;;;;;;-7.64;90.19;140425.88;106613;1257;25373;-64
2024/03/10 03:00:12;;;;;;;42.00;23.10;;;;;;;-7.67;90.37;140418.47;106728;1269;25349;-65
2024/03/10 03:02:59;;;;;;;45.90;22.80;;;;;;;-7.69;91.01;140414.52;106597;1269;25376;-63
2024/03/10 03:05:44;;;;;;;48.00;23.30;;;;;;;-7.70;91.24;140412.30;106672;1271;25345;-65
2024/03/10 03:08:30;;;;;;;42.40;21.60;;;;;;;-7.70;91.36;140411.55;106552;1273;25524;-65
2024/03/10 03:11:16;;;;;;;43.80;22.80;;;;;;;-7.68;91.39;140416.98;106735;1271;25448;-64
2024/03/10 03:14:02;;;;;;;43.90;23.50;;;;;;;-7.67;91.27;140418.97;106631;1268;25373;-64
2024/03/10 03:16:48;;;;;;;40.00;22.60;;;;;;;-7.68;91.34;140417.00;106662;1273;25338;-63
2024/03/10 03:19:36;;;;;;;38.80;22.80;;;;;;;-7.70;91.75;140410.56;106600;1270;25328;-64
2024/03/10 03:22:22;;;;;;;46.60;24.80;;;;;;;-7.74;91.82;140402.92;106608;1268;25345;-62
2024/03/10 03:25:07;;;;;;;49.30;24.10;;;;;;;-7.79;91.65;140389.34;106605;1270;26114;-62
2024/03/10 03:27:54;;;;;;;46.40;23.90;;;;;;;-7.84;92.25;140377.27;106653;1273;25373;-62
2024/03/10 03:30:42;;;;;;;42.70;24.90;;;;;;;-7.89;92.64;140365.66;106719;1268;25367;-62
2024/03/10 03:33:28;;;;;;;45.30;22.90;;;;;;;-7.96;92.83;140349.13;106659;1265;25407;-63
2024/03/10 03:36:14;;;;;;;46.90;23.10;;;;;;;-8.01;93.51;140335.56;106742;1272;25477;-64
2024/03/10 03:39:00;;;;;;;40.90;22.50;;;;;;;-8.04;93.99;140327.91;106673;1268;25377;-64
2024/03/10 03:41:45;;;;;;;39.90;22.40;;;;;;;-8.04;94.12;140327.91;106731;1276;25427;-62
2024/03/10 03:44:31;;;;;;;47.70;23.50;;;;;;;-8.04;94.63;140327.66;106630;1271;25466;-65
2024/03/10 03:47:17;;;;;;;45.40;23.20;;;;;;;-8.07;94.52;140323.69;106614;1278;25377;-64
2024/03/10 03:50:03;;;;;;;41.80;22.30;;;;;;;-8.08;94.86;140319.27;106674;1271;25349;-62
2024/03/10 03:52:52;;;;;;;48.80;24.00;;;;;;;-8.13;95.15;140308.42;106808;1272;25337;-63
2024/03/10 03:55:37;;;;;;;48.00;23.40;;;;;;;-8.18;95.39;140297.31;106718;1269;23219;-62
2024/03/10 03:58:23;;;;;;;41.30;23.00;;;;;;;-8.23;95.55;140283.50;106802;1256;25339;-63
2024/03/10 04:01:08;;;;;;;47.60;23.60;;;;;;;-8.28;96.34;140270.67;106899;1269;23368;-64
2024/03/10 04:03:54;;;;;;;42.60;22.00;;;;;;;-8.32;96.65;140263.03;106773;1272;25364;-64
2024/03/10 04:06:40;;;;;;;46.80;23.00;;;;;;;-8.34;96.89;140256.38;106711;1271;25373;-64
2024/03/10 04:09:26;;;;;;;41.10;21.90;;;;;;;-8.38;97.40;140247.78;106671;1270;23953;-63
2024/03/10 04:12:12;;;;;;;42.80;22.70;;;;;;;-8.41;98.02;140241.11;106520;1269;25459;-64
2024/03/10 04:14:58;;;;;;;42.20;22.70;;;;;;;-8.40;98.62;140242.84;106525;1271;25429;-62
2024/03/10 04:17:46;;;;;;;42.40;23.40;;;;;;;-8.41;98.70;140241.34;106671;1271;25428;-63
2024/03/10 04:20:32;;;;;;;43.10;23.70;;;;;;;-8.43;98.78;140235.94;106701;1277;25497;-62
2024/03/10 04:23:19;;;;;;;44.40;22.60;;;;;;;-8.45;99.05;140229.28;106721;1272;25034;-62
2024/03/10 04:26:08;;;;;;;42.90;22.90;;;;;;;-8.48;99.41;140222.64;106755;1276;25373;-64
2024/03/10 04:28:56;;;;;;;45.20;23.20;;;;;;;-8.51;99.54;140216.72;106702;1268;25426;-65
2024/03/10 04:31:42;;;;;;;41.80;22.90;;;;;;;-8.55;99.85;140206.36;106719;1268;25456;-62
2024/03/10 04:34:29;;;;;;;42.70;23.90;;;;;;;-8.58;100.00;140199.44;106557;1273;25411;-64
2024/03/10 04:37:15;;;;;;;41.60;21.90;;;;;;;-8.58;100.00;140199.94;106764;1270;25497;-64
2024/03/10 04:40:01;;;;;;;43.10;22.00;;;;;;;-8.56;100.00;140204.41;106740;1268;25498;-64
2024/03/10 04:42:49;;;;;;;47.50;22.80;;;;;;;-8.52;100.00;140214.50;106638;1272;25386;-64
2024/03/10 04:45:35;;;;;;;39.00;21.50;;;;;;;-8.46;100.00;140226.31;106661;1273;25495;-65
2024/03/10 04:48:20;;;;;;;48.70;24.20;;;;;;;-8.42;100.00;140238.41;106845;1274;25367;-64
2024/03/10 04:51:08;;;;;;;40.70;22.90;;;;;;;-8.36;100.00;140251.45;106547;1271;25428;-64
2024/03/10 04:53:53;;;;;;;44.90;23.10;;;;;;;-8.30;100.00;140266.72;106499;1271;25447;-64
2024/03/10 04:56:39;;;;;;;44.20;24.10;;;;;;;-8.13;99.95;140306.92;106668;1272;25521;-64
2024/03/10 04:59:25;;;;;;;42.40;23.70;;;;;;;-7.30;99.85;140507.59;106681;1272;25373;-63
2024/03/10 05:02:10;;;;;;;47.00;24.50;;;;;;;-6.20;96.24;140774.86;106672;1276;26649;-65
2024/03/10 05:04:56;;;;;;;42.90;23.30;;;;;;;-5.04;91.58;141054.27;106850;1262;25402;-64
2024/03/10 05:07:42;;;;;;;39.30;22.90;;;;;;;-3.81;86.28;141350.36;106737;1259;25536;-63
2024/03/10 05:10:28;;;;;;;39.80;21.70;;;;;;;-2.51;78.98;141666.16;106910;1271;22607;-66
2024/03/10 05:13:13;;;;;;;43.80;22.60;;;;;;;-1.41;71.38;141932.91;106787;1271;25423;-64
2024/03/10 05:15:59;;;;;;;42.90;21.40;;;;;;;-0.37;66.18;142184.77;106716;1269;25504;-66
2024/03/10 05:18:44;;;;;;;38.80;21.20;;;;;;;0.78;60.26;142464.23;106706;1272;25366;-65
2024/03/10 05:21:30;;;;;;;41.60;19.60;;;;;;;1.73;55.68;142695.67;106746;1271;25475;-63
2024/03/10 05:24:15;;;;;;;35.30;21.60;;;;;;;2.65;50.72;142918.11;106672;1270;25373;-65
2024/03/10 05:27:01;;;;;;;38.00;21.70;;;;;;;3.27;48.81;143070.64;106753;1269;22574;-66
2024/03/10 05:29:47;;;;;;;35.40;21.00;;;;;;;4.14;46.22;143282.91;106725;1272;25390;-64
2024/03/10 05:32:32;;;;;;;31.10;21.00;;;;;;;5.04;43.82;143502.80;106686;1273;25337;-64
2024/03/10 05:35:20;;;;;;;30.80;19.60;;;;;;;6.02;41.61;143740.14;106855;1268;23123;-65
2024/03/10 05:38:05;;;;;;;36.60;21.00;;;;;;;6.89;39.53;143953.66;106771;1268;25353;-64
2024/03/10 05:40:52;;;;;;;37.40;19.40;;;;;;;7.54;37.61;144114.00;106647;1271;25405;-64
2024/03/10 05:43:37;;;;;;;29.40;19.00;;;;;;;8.18;36.27;144269.67;106669;1272;25433;-63
2024/03/10 05:46:23;;;;;;;29.10;17.80;;;;;;;8.97;34.64;144461.81;106702;1277;25367;-66
2024/03/10 05:49:08;;;;;;;34.80;20.90;;;;;;;9.61;33.34;144619.69;106770;1272;23215;-65
2024/03/10 05:51:54;;;;;;;33.40;19.20;;;;;;;10.10;32.27;144739.53;106813;1268;24199;-63
2024/03/10 05:54:39;;;;;;;30.10;19.30;;;;;;;10.76;31.52;144901.59;106719;1272;25372;-61
2024/03/10 05:57:25;;;;;;;29.20;18.90;;;;;;;11.50;30.37;145081.78;106747;1271;25502;-60
2024/03/10 06:00:15;;;;;;;30.70;19.40;;;;;;;12.02;29.38;145210.41;106737;1278;25533;-63
2024/03/10 06:03:01;;;;;;;31.50;19.80;;;;;;;12.12;28.88;145233.00;106655;1269;25365;-62
2024/03/10 06:05:47;;;;;;;30.60;20.10;;;;;;;12.37;28.32;145295.30;107066;1269;25366;-63
2024/03/10 06:08:35;;;;;;;31.40;19.50;;;;;;;12.63;28.02;145360.34;106819;1278;25312;-60
2024/03/10 06:11:20;;;;;;;37.40;20.70;;;;;;;13.34;27.25;145533.58;106828;1269;25440;-62
2024/03/10 06:14:06;;;;;;;29.00;19.10;;;;;;;14.18;26.14;145738.78;106695;1276;25337;-63
2024/03/10 06:16:52;;;;;;;27.70;19.00;;;;;;;14.64;25.49;145853.03;106793;1261;25519;-61
2024/03/10 06:25:48;;;;;;;32.80;19.50;;;;;;;16.20;23.60;146237.33;106885;1268;22531;-66
2024/03/10 06:28:34;;;;;;;32.80;19.20;;;;;;;16.41;23.13;146289.00;106879;1271;25414;-61
2024/03/10 06:31:20;;;;;;;30.50;19.40;;;;;;;16.56;22.95;146325.03;106699;1276;25370;-64
2024/03/10 06:34:06;;;;;;;26.20;17.90;;;;;;;17.09;22.54;146456.91;106711;1265;25338;-64
2024/03/10 06:36:51;;;;;;;25.90;17.40;;;;;;;17.50;22.05;146557.00;106867;1276;25557;-63
2024/03/10 06:39:37;;;;;;;28.90;17.70;;;;;;;17.94;21.38;146663.98;106734;1278;25414;-67
2024/03/10 06:42:22;;;;;;;27.60;16.20;;;;;;;17.80;21.43;146631.67;106894;1275;25491;-65
2024/03/10 06:45:08;;;;;;;25.50;17.00;;;;;;;17.53;21.21;146565.09;106890;1273;25537;-64
2024/03/10 06:47:54;;;;;;;24.50;15.80;;;;;;;17.02;21.56;146438.00;106752;1262;25363;-62
2024/03/10 06:50:40;;;;;;;23.70;16.10;;;;;;;16.06;21.73;146202.59;106752;1279;25389;-64
2024/03/10 06:53:25;;;;;;;25.60;16.20;;;;;;;14.85;22.72;145905.16;106792;1276;25425;-65
2024/03/10 06:56:11;;;;;;;24.00;15.30;;;;;;;14.59;23.03;145840.72;106746;1279;25359;-63
2024/03/10 06:58:57;;;;;;;24.10;15.70;;;;;;;14.28;23.29;145763.95;106745;1277;25416;-67
2024/03/10 07:01:44;;;;;;;24.80;16.20;;;;;;;14.21;23.41;145748.34;106736;1272;25434;-65
2024/03/10 07:04:32;;;;;;;23.40;15.60;;;;;;;14.13;23.41;145728.47;106807;1265;25338;-63
2024/03/10 07:07:18;;;;;;;24.60;16.60;;;;;;;14.87;23.07;145909.92;106666;1261;25525;-69
2024/03/10 07:10:04;;;;;;;26.30;16.80;;;;;;;15.37;22.57;146032.80;106681;1263;25367;-65
2024/03/10 07:12:50;;;;;;;23.80;16.90;;;;;;;15.00;22.47;145941.14;106641;1269;25376;-65
2024/03/10 07:15:36;;;;;;;25.40;16.40;;;;;;;13.97;23.24;145687.72;106665;1279;25377;-63
2024/03/10 07:18:22;;;;;;;23.30;15.80;;;;;;;14.15;23.35;145732.75;106675;1274;25436;-68
2024/03/10 07:21:08;;;;;;;25.70;16.90;;;;;;;14.24;23.35;145755.66;106645;1277;25712;-66
2024/03/10 07:23:54;;;;;;;22.50;16.00;;;;;;;13.77;23.68;145637.66;106670;1280;26752;-67
2024/03/10 07:26:41;;;;;;;22.40;15.60;;;;;;;14.07;23.42;145713.14;106656;1277;25338;-69
2024/03/10 07:29:27;;;;;;;25.60;18.00;;;;;;;14.22;23.46;145750.59;106657;1269;25362;-66
2024/03/10 07:32:13;;;;;;;24.20;17.60;;;;;;;14.65;23.24;145855.55;106625;1275;25348;-65
2024/03/10 07:35:00;;;;;;;24.80;18.30;;;;;;;15.03;22.73;145948.69;106650;1278;25484;-64
2024/03/10 07:37:46;;;;;;;22.90;16.40;;;;;;;15.00;22.81;145942.16;106641;1270;25419;-64
2024/03/10 07:40:32;;;;;;;26.00;17.70;;;;;;;15.06;22.74;145956.50;106661;1276;25349;-66
2024/03/10 07:43:17;;;;;;;26.70;18.60;;;;;;;14.93;22.82;145924.78;106636;1274;25498;-67
2024/03/10 07:46:07;;;;;;;26.20;17.20;;;;;;;14.62;23.20;145849.28;106674;1271;25369;-68
2024/03/10 07:48:53;;;;;;;25.70;18.20;;;;;;;14.47;23.41;145811.72;106624;1279;25447;-65
2024/03/10 07:51:38;;;;;;;26.40;16.90;;;;;;;14.49;23.45;145817.05;106646;1278;25341;-62
2024/03/10 07:54:24;;;;;;;24.00;16.30;;;;;;;14.76;23.32;145883.00;106660;1280;25519;-67
2024/03/10 07:57:10;;;;;;;27.20;17.70;;;;;;;14.79;23.13;145890.80;106661;1264;25504;-68
2024/03/10 07:59:56;;;;;;;24.60;16.80;;;;;;;14.61;23.45;145845.00;106639;1279;25348;-66
2024/03/10 08:02:43;;;;;;;24.70;16.30;;;;;;;14.63;23.41;145850.28;106680;1279;25376;-68
2024/03/10 08:05:29;;;;;;;26.20;17.10;;;;;;;14.93;23.33;145926.05;106658;1279;25366;-66
2024/03/10 08:08:16;;;;;;;23.70;16.50;;;;;;;15.40;23.01;146040.34;106644;1268;25338;-61
2024/03/10 08:11:03;;;;;;;25.20;16.50;;;;;;;15.68;22.75;146110.38;106647;1280;25348;-66
2024/03/10 08:13:49;;;;;;;24.40;16.30;;;;;;;15.25;22.85;146002.58;106687;1274;25409;-63
2024/03/10 08:16:35;;;;;;;22.80;16.60;;;;;;;15.20;22.99;145991.73;106676;1278;25383;-63
2024/03/10 08:19:21;;;;;;;23.20;16.40;;;;;;;15.21;23.10;145994.03;106644;1275;25366;-67
2024/03/10 08:22:06;;;;;;;23.40;15.00;;;;;;;15.42;22.80;146043.59;106638;1279;25539;-62
2024/03/10 08:24:52;;;;;;;26.60;16.30;;;;;;;14.81;23.09;145894.58;106657;1274;25440;-65
2024/03/10 08:27:45;;;;;;;23.80;14.60;;;;;;;13.92;23.73;145677.16;106676;1278;25601;-69
2024/03/10 08:30:32;;;;;;;21.60;15.00;;;;;;;13.10;24.98;145474.70;106632;1275;25338;-71
2024/03/10 08:33:17;;;;;;;20.00;15.00;;;;;;;12.96;25.13;145440.53;106619;1279;25555;-67
2024/03/10 08:36:04;;;;;;;22.50;13.70;;;;;;;12.42;25.50;145308.59;106652;1279;25414;-65
2024/03/10 08:38:51;;;;;;;20.70;12.60;;;;;;;12.01;25.88;145206.89;106637;1270;25366;-68
2024/03/10 08:41:37;;;;;;;21.20;14.40;;;;;;;11.57;26.36;145099.63;106613;1260;25337;-68
2024/03/10 08:44:24;;;;;;;20.10;13.60;;;;;;;11.25;26.91;145019.80;106541;1279;25421;-65
2024/03/10 08:47:11;;;;;;;20.30;12.40;;;;;;;10.90;26.98;144936.22;106677;1276;25380;-62
2024/03/10 08:49:59;;;;;;;19.90;14.00;;;;;;;10.22;27.78;144768.41;106639;1277;25432;-69
2024/03/10 08:52:45;;;;;;;16.60;12.70;;;;;;;9.46;28.73;144582.84;106645;1277;25428;-66
2024/03/10 08:55:32;;;;;;;20.00;13.60;;;;;;;9.12;29.34;144498.91;106662;1278;25592;-65
2024/03/10 08:58:18;;;;;;;18.90;13.30;;;;;;;8.86;29.52;144436.28;106673;1279;25431;-64
2024/03/10 09:01:04;;;;;;;21.70;13.80;;;;;;;8.27;30.27;144290.47;106624;1269;25356;-63
2024/03/10 09:03:53;;;;;;;18.80;12.70;;;;;;;7.66;30.89;144141.28;106630;1262;25654;-68
2024/03/10 09:06:38;;;;;;;18.60;12.90;;;;;;;7.03;31.77;143987.91;106656;1280;25341;-63
2024/03/10 09:09:25;;;;;;;20.80;13.10;;;;;;;6.59;32.51;143881.14;106651;1279;25395;-65
2024/03/10 09:12:10;;;;;;;17.70;11.50;;;;;;;6.34;32.93;143819.38;106624;1279;24196;-68
2024/03/10 09:14:57;;;;;;;19.60;12.10;;;;;;;5.80;33.49;143687.89;106639;1269;25413;-62
2024/03/10 09:17:44;;;;;;;18.30;10.90;;;;;;;5.18;34.16;143535.52;106663;1280;25352;-61
2024/03/10 09:20:33;;;;;;;22.40;11.70;;;;;;;4.64;35.16;143403.67;106572;1279;25376;-67
2024/03/10 09:23:20;;;;;;;20.60;12.10;;;;;;;4.04;36.30;143257.94;106621;1270;22640;-62
2024/03/10 09:26:06;;;;;;;16.50;9.90;;;;;;;3.57;36.98;143143.95;106622;1279;22537;-64
2024/03/10 09:28:55;;;;;;;19.80;11.80;;;;;;;3.04;38.10;143015.30;106666;1270;25362;-65
2024/03/10 09:31:41;;;;;;;18.40;11.00;;;;;;;2.50;38.88;142881.72;106652;1279;25345;-64
2024/03/10 09:34:27;;;;;;;21.60;11.90;;;;;;;2.24;39.96;142818.72;106664;1260;25343;-65
2024/03/10 09:37:13;;;;;;;19.50;12.30;;;;;;;1.90;40.61;142737.03;106540;1263;26712;-66
2024/03/10 09:39:59;;;;;;;16.80;10.50;;;;;;;1.75;40.84;142701.16;106544;1270;159953;-64
2024/03/10 09:42:47;;;;;;;21.20;9.70;;;;;;;1.50;40.84;142638.91;106636;1260;25428;-64
2024/03/10 09:45:51;;;;;;;15.30;9.20;;;;;;;1.27;41.20;142584.91;106696;1277;25495;-67
2024/03/10 09:48:42;;;;;;;18.20;8.90;;;;;;;1.24;41.34;142576.44;106625;1270;25366;-67
2024/03/10 09:51:33;;;;;;;16.60;8.80;;;;;;;1.12;41.43;142548.09;106582;1277;26651;-65
2024/03/10 09:54:21;;;;;;;16.90;8.60;;;;;;;0.96;41.98;142508.53;106480;1279;25438;-62
2024/03/10 09:57:08;;;;;;;17.80;10.10;;;;;;;0.75;42.97;142456.77;106625;1279;25386;-65
2024/03/10 09:59:54;;;;;;;17.10;9.30;;;;;;;0.58;43.75;142415.48;106622;1270;25327;-65
2024/03/10 10:02:44;;;;;;;18.50;8.40;;;;;;;0.47;43.79;142388.09;106663;1279;25338;-67
2024/03/10 10:05:32;;;;;;;15.80;8.50;;;;;;;0.42;43.49;142378.16;106684;1270;24241;-64
2024/03/10 10:08:19;;;;;;;13.10;8.20;;;;;;;0.27;43.84;142339.14;106630;1279;25386;-67
2024/03/10 10:11:08;;;;;;;19.50;9.30;;;;;;;0.25;44.16;142336.16;106632;1270;25396;-68
2024/03/10 10:14:07;;;;;;;17.80;9.30;;;;;;;0.22;44.23;142328.94;106608;1280;25501;-66
2024/03/10 10:16:55;;;;;;;15.00;9.60;;;;;;;0.30;44.35;142347.09;106671;1271;25379;-65
2024/03/10 10:19:42;;;;;;;19.30;8.80;;;;;;;0.38;44.21;142366.23;106651;1270;25348;-68
2024/03/10 10:22:27;;;;;;;15.50;8.70;;;;;;;0.42;44.22;142377.67;106676;1264;25413;-66
2024/03/10 10:25:13;;;;;;;18.50;9.00;;;;;;;0.48;44.13;142390.34;106672;1265;25345;-66
2024/03/10 10:28:04;;;;;;;18.40;9.70;;;;;;;0.51;44.25;142399.06;106646;1260;25338;-65
2024/03/10 10:30:49;;;;;;;16.00;9.40;;;;;;;0.53;44.31;142403.30;106634;1260;25389;-65
2024/03/10 10:33:38;;;;;;;15.00;9.20;;;;;;;0.70;44.03;142443.83;106617;1264;25384;-64
2024/03/10 10:36:25;;;;;;;16.50;9.40;;;;;;;0.77;43.67;142462.25;106599;1279;25334;-66
2024/03/10 10:39:16;;;;;;;16.20;8.10;;;;;;;0.74;43.68;142455.03;106635;1271;25414;-69
2024/03/10 10:42:03;;;;;;;19.50;9.30;;;;;;;0.71;43.65;142447.81;106662;1264;25375;-66
2024/03/10 10:45:01;;;;;;;16.90;9.00;;;;;;;0.80;43.75;142469.22;106643;1270;25361;-66
2024/03/10 10:47:47;;;;;;;21.30;9.00;;;;;;;0.91;43.46;142495.56;106649;1264;25338;-66
2024/03/10 10:50:34;;;;;;;13.80;8.70;;;;;;;0.95;43.21;142506.78;106646;1261;25412;-68
2024/03/10 10:53:20;;;;;;;17.80;9.10;;;;;;;0.96;43.18;142507.28;106650;1270;25337;-66
2024/03/10 10:56:07;;;;;;;14.20;8.70;;;;;;;1.00;43.40;142518.97;106670;1270;25395;-68
2024/03/10 10:58:54;;;;;;;18.30;9.60;;;;;;;0.98;43.05;142512.77;106652;1258;25371;-64
2024/03/10 11:01:40;;;;;;;24.50;9.10;;;;;;;0.87;43.40;142485.88;106671;1260;25338;-66
2024/03/10 11:04:30;;;;;;;15.00;8.70;;;;;;;0.95;43.36;142507.03;106643;1270;25422;-66
2024/03/10 11:07:16;;;;;;;16.60;9.40;;;;;;;0.93;43.36;142499.56;106642;1264;25361;-67
2024/03/10 11:10:40;;;;;;;18.10;10.10;;;;;;;0.89;43.61;142491.59;106630;1264;25338;-61
2024/03/10 11:13:27;;;;;;;14.20;8.50;;;;;;;1.12;43.26;142547.83;106663;1260;25465;-63
2024/03/10 11:16:20;;;;;;;18.30;9.10;;;;;;;1.21;42.84;142568.22;106623;1261;25376;-67
2024/03/10 11:19:18;;;;;;;17.20;9.70;;;;;;;1.14;42.89;142551.55;106674;1270;25521;-67
2024/03/10 11:22:08;;;;;;;16.90;8.80;;;;;;;1.10;43.28;142540.88;106656;1260;25359;-69
2024/03/10 11:25:08;;;;;;;16.20;8.80;;;;;;;1.18;43.28;142562.03;106633;1270;25386;-64
2024/03/10 11:27:54;;;;;;;19.90;9.60;;;;;;;1.30;43.18;142590.91;106643;1262;25386;-65
2024/03/10 11:30:45;;;;;;;14.50;9.10;;;;;;;1.32;43.16;142596.59;106635;1261;25385;-67
2024/03/10 11:33:31;;;;;;;17.50;10.10;;;;;;;1.24;43.06;142576.94;106657;1279;25376;-65
2024/03/10 11:36:22;;;;;;;16.70;9.40;;;;;;;1.24;43.18;142576.20;106630;1279;25337;-65
2024/03/10 11:39:08;;;;;;;18.60;10.30;;;;;;;1.28;43.08;142586.91;106644;1258;25339;-65
2024/03/10 11:41:54;;;;;;;16.80;9.30;;;;;;;1.34;43.18;142600.59;106653;1257;25402;-67
2024/03/10 11:44:40;;;;;;;20.30;10.20;;;;;;;1.53;43.02;142645.64;106668;1269;25356;-70
2024/03/10 11:47:26;;;;;;;16.50;9.30;;;;;;;1.64;42.54;142674.28;106639;1279;25358;-63
2024/03/10 11:50:12;;;;;;;18.00;9.10;;;;;;;1.69;42.43;142686.72;106636;1260;25359;-66
2024/03/10 11:52:58;;;;;;;18.80;9.50;;;;;;;1.65;42.37;142675.78;106638;1264;25417;-68
2024/03/10 11:55:55;;;;;;;16.40;9.30;;;;;;;1.52;42.54;142644.91;106682;1264;25328;-66
2024/03/10 11:58:41;;;;;;;17.70;9.20;;;;;;;1.49;42.65;142638.17;106653;1260;25500;-68
2024/03/10 12:01:30;;;;;;;15.50;9.10;;;;;;;1.55;42.64;142651.34;106665;1270;25410;-65
2024/03/10 12:04:16;;;;;;;17.70;9.10;;;;;;;1.53;42.71;142646.64;106631;1258;25443;-67
2024/03/10 12:07:01;;;;;;;17.90;9.50;;;;;;;1.42;42.96;142620.23;106654;1267;25498;-63
2024/03/10 12:09:53;;;;;;;14.60;8.40;;;;;;;1.37;42.92;142607.30;106676;1260;25495;-68
2024/03/10 12:12:39;;;;;;;13.50;8.20;;;;;;;1.42;43.05;142619.75;106636;1263;25486;-71
2024/03/10 12:15:26;;;;;;;18.00;10.10;;;;;;;1.61;42.72;142667.05;106652;1264;25414;-68
2024/03/10 12:18:12;;;;;;;16.10;9.30;;;;;;;1.67;42.29;142680.75;106638;1264;25407;-69
2024/03/10 12:20:59;;;;;;;14.40;8.30;;;;;;;1.53;42.42;142645.91;106669;1261;25428;-65
2024/03/10 12:23:46;;;;;;;14.90;8.70;;;;;;;1.52;42.52;142644.91;106626;1268;25391;-69
2024/03/10 12:26:32;;;;;;;18.50;8.00;;;;;;;1.36;42.70;142605.33;106662;1257;25409;-68
2024/03/10 12:29:21;;;;;;;16.20;8.10;;;;;;;1.17;43.13;142559.78;106636;1262;25356;-67
2024/03/10 12:32:08;;;;;;;15.00;7.30;;;;;;;1.15;43.38;142554.80;106659;1261;25348;-64
2024/03/10 12:34:54;;;;;;;12.90;7.50;;;;;;;1.26;43.26;142581.42;106649;1267;25358;-66
2024/03/10 12:37:40;;;;;;;12.70;7.50;;;;;;;1.27;43.07;142585.41;106656;1258;25893;-67
2024/03/10 12:40:27;;;;;;;14.40;7.50;;;;;;;1.08;43.11;142537.13;106632;1280;25353;-66
2024/03/10 12:43:13;;;;;;;18.10;8.00;;;;;;;0.99;43.43;142517.22;106644;1279;25395;-68
2024/03/10 12:46:04;;;;;;;13.30;7.90;;;;;;;1.11;43.27;142544.34;106658;1257;25444;-71
2024/03/10 12:48:52;;;;;;;11.80;7.10;;;;;;;1.29;43.18;142588.63;106644;1279;25361;-67
2024/03/10 12:51:39;;;;;;;14.40;7.00;;;;;;;1.52;42.73;142646.13;106665;1261;25329;-69
2024/03/10 12:54:25;;;;;;;15.90;8.00;;;;;;;1.53;42.33;142647.39;106670;1274;25373;-65
2024/03/10 12:57:11;;;;;;;13.40;7.00;;;;;;;1.40;42.70;142616.28;106678;1258;25366;-68